Memphis International Airport
KMEM : rendu visible

Aérodrome :











RETROUVEZ-NOUS SUR...

 
LOGIN :

S'inscrire | Disclaimer

   EN    FR    IT 

 









Légende :    VFR   VFR Marginal   IFR   IFR Intensif   IFR Très Intensif
Visi : 
Plafond : 
>= 8 km
>= 3000ft
5 à 8 km
1000 à 3000 ft
1500m à 5 km
500 à 1000 ft
800 à 1500m
200 à 500 ft
< 800m
< 200 ft
Symboles :   Orages  Brouillard  Fortes neiges  Fortes précipitations  Vent > 20 kt






- Altitude de l'aérodrome : 341 ft
- Code IATA : MEM


KMEM - Memphis International

DERNIER METAR :
  • 221554Z 16009KT 10SM SCT110 BKN150 OVC250 19/12 A3024 RMK AO2 RAE11 SLP236 VCSH P0000 T01890117 $

METARs EXPIRÉS :
  • 221505Z 16009KT 10SM -RA FEW050 BKN100 BKN140 OVC250 18/12 A3024 RMK AO2 P0000 T01830117 $
  • 221454Z 15008KT 10SM -RA SCT110 BKN140 OVC250 18/12 A3024 RMK AO2 RAE05B48 SLP238 P0000 60000 T01830117 51010 $
  • 221354Z 16010KT 10SM -RA BKN120 OVC250 18/11 A3023 RMK AO2 RAB00E27B48 SLP235 P0000 T01780106 $

TAF KMEM
Valide du 22 à 15h jusqu'au 23 à 18h UTC


221458Z 2215/2318 15008KT P6SM VCSH SCT080 BKN100 BKN250
FM221800 10008KT P6SM VCSH OVC080
FM230400 06005KT P6SM VCSH OVC050
FM230900 13004KT P6SM -SHRA OVC050
FIR KZME / Amérique du Nord



MET'MAP, la Météo Aéronautique d'un coup d'oeil ! - Copyright ORBIFLY Décembre 2007 - Disclaimer

ORBIFLY MET'MAP TEAM :

Programmation & Développement : Alexandra Zaïnal
Sur une idée originale de : Baudouin d'Aumeries
Assistance à la programmation : Marc-Olivier Méhu
Soutien technique & logistique : Manuel Goepfert

Contact : metmap@orbifly.com




SOURCES & CREDITS :

   NOAA       Earth
Advisory